.
WxDataArchive / Data Records for 2016-04-29
2016-04-28 April 2016 2016-04-30

Data Records for Friday, 29 April 2016

Time	Temp	Chill	HIndex	Humid	Dewpt	 Wind 	HiWind	WindDir	Rain 	Barom
-----	----	-----	------	-----	-----	------	------	-------	-----	-----
00:00	46.2	46.2	46.2	74	38.4	0	2	112	0.00	29.969 
00:05	46.2	46.2	46.2	75	38.7	0	1	112	0.00	29.969 
00:10	46.2	46.2	46.2	75	38.7	0	1	112	0.00	29.969 
00:15	46.2	46.2	46.2	75	38.7	0	1	112	0.00	29.968 
00:20	46.2	46.2	46.2	75	38.7	0	1	112	0.00	29.968 
00:25	46.2	46.2	46.2	74	38.4	0	1	112	0.00	29.968 
00:30	46.2	46.2	46.2	75	38.7	0	2	112	0.00	29.970 
00:35	46.2	46.2	46.2	75	38.7	0	1	112	0.00	29.970 
00:40	46.2	46.2	46.2	75	38.7	0	0	---	0.00	29.970 
00:45	46.2	46.2	46.2	75	38.7	0	1	112	0.00	29.973 
00:50	46.2	46.2	46.2	75	38.7	0	0	---	0.00	29.973 
00:55	46.2	46.2	46.2	75	38.7	0	0	---	0.00	29.973 
01:00	46.1	46.1	46.1	75	38.6	0	0	---	0.00	29.975 
01:05	46.1	46.1	46.1	74	38.3	0	0	---	0.00	29.975 
01:10	46.1	46.1	46.1	74	38.3	0	0	---	0.00	29.975 
01:15	46.1	46.1	46.1	74	38.3	0	0	---	0.00	29.976 
01:20	46.1	46.1	46.1	74	38.3	0	0	---	0.00	29.976 
01:25	46.1	46.1	46.1	74	38.3	0	0	---	0.00	29.976 
01:30	46.1	46.1	46.1	74	38.3	0	0	---	0.00	29.976 
01:35	46.1	46.1	46.1	74	38.3	0	0	---	0.00	29.976 
01:40	46.1	46.1	46.1	74	38.3	0	0	---	0.00	29.976 
01:45	46.1	46.1	46.1	74	38.3	0	0	---	0.00	29.975 
01:50	46.2	46.2	46.2	75	38.7	0	0	---	0.00	29.975 
01:55	46.2	46.2	46.2	74	38.4	0	1	112	0.00	29.975 
02:00	46.1	46.1	46.1	74	38.3	0	0	---	0.00	29.976 
02:05	46.1	46.1	46.1	74	38.3	0	1	112	0.00	29.976 
02:10	46.1	46.1	46.1	74	38.3	0	0	---	0.00	29.976 
02:15	46.1	46.1	46.1	73	37.9	0	1	112	0.00	29.977 
02:20	46.1	46.1	46.1	73	37.9	0	0	---	0.00	29.977 
02:25	46.1	46.1	46.1	73	37.9	0	0	---	0.00	29.977 
02:30	46.1	46.1	46.1	73	37.9	0	0	---	0.00	29.973 
02:35	46.1	46.1	46.1	73	37.9	0	0	---	0.00	29.973 
02:40	46.1	46.1	46.1	73	37.9	0	0	---	0.00	29.973 
02:45	46.1	46.1	46.1	73	37.9	0	0	---	0.00	29.967 
02:50	46.1	46.1	46.1	74	38.3	0	0	---	0.00	29.967 
02:55	46.1	46.1	46.1	74	38.3	0	1	112	0.00	29.967 
03:00	46.1	46.1	46.1	74	38.3	0	0	---	0.00	29.968 
03:05	46.1	46.1	46.1	74	38.3	0	1	112	0.00	29.968 
03:10	46.1	46.1	46.1	74	38.3	0	1	112	0.00	29.968 
03:15	46.0	46.0	46.0	74	38.2	0	0	---	0.00	29.960 
03:20	46.0	46.0	46.0	74	38.2	0	1	112	0.00	29.960 
03:25	46.0	46.0	46.0	75	38.5	0	0	---	0.00	29.960 
03:30	45.8	45.8	45.8	74	38.0	0	1	112	0.00	29.959 
03:35	45.8	45.8	45.8	74	38.0	0	1	112	0.00	29.959 
03:40	45.8	45.8	45.8	74	38.0	0	1	112	0.00	29.959 
03:45	45.8	45.8	45.8	74	38.0	0	0	---	0.00	29.963 
03:50	45.7	45.7	45.7	74	37.9	0	0	---	0.00	29.963 
03:55	45.7	45.7	45.7	74	37.9	0	0	---	0.00	29.963 
04:00	45.7	45.7	45.7	74	37.9	0	0	---	0.00	29.966 
04:05	45.5	45.5	45.5	74	37.7	0	0	---	0.00	29.966 
04:10	45.5	45.5	45.5	74	37.7	0	1	112	0.00	29.966 
04:15	45.5	45.5	45.5	75	38.0	0	0	---	0.00	29.974 
04:20	45.5	45.5	45.5	75	38.0	0	0	---	0.00	29.974 
04:25	45.5	45.5	45.5	75	38.0	0	0	---	0.00	29.974 
04:30	45.5	45.5	45.5	74	37.7	0	0	---	0.00	29.968 
04:35	45.5	45.5	45.5	75	38.0	0	0	---	0.00	29.968 
04:40	45.5	45.5	45.5	75	38.0	0	0	---	0.00	29.968 
04:45	45.5	45.5	45.5	75	38.0	0	0	---	0.00	29.976 
04:50	45.5	45.5	45.5	75	38.0	0	0	---	0.00	29.976 
04:55	45.5	45.5	45.5	75	38.0	0	0	---	0.00	29.976 
05:00	45.5	45.5	45.5	75	38.0	0	0	---	0.00	29.973 
05:05	45.4	45.4	45.4	75	37.9	0	0	---	0.00	29.973 
05:10	45.4	45.4	45.4	75	37.9	0	0	---	0.00	29.973 
05:15	45.4	45.4	45.4	75	37.9	0	0	---	0.00	29.963 
05:20	45.4	45.4	45.4	75	37.9	0	0	---	0.00	29.963 
05:25	45.2	45.2	45.2	75	37.8	0	0	---	0.00	29.963 
05:30	45.1	45.1	45.1	75	37.7	0	0	---	0.00	29.965 
05:35	44.9	44.9	44.9	76	37.8	0	0	---	0.00	29.965 
05:40	44.8	44.8	44.8	76	37.7	0	0	---	0.00	29.965 
05:45	44.5	44.5	44.5	76	37.4	0	0	---	0.00	29.963 
05:50	44.2	44.2	44.2	77	37.5	0	0	---	0.00	29.963 
05:55	44.1	44.1	44.1	77	37.4	0	0	---	0.00	29.963 
06:00	43.8	43.8	43.8	78	37.4	0	0	---	0.00	29.963 
06:05	43.6	43.6	43.6	79	37.5	0	0	---	0.00	29.963 
06:10	43.5	43.5	43.5	80	37.7	0	0	---	0.00	29.963 
06:15	43.3	43.3	43.3	81	37.9	0	0	---	0.00	29.967 
06:20	43.3	43.3	43.3	81	37.9	0	0	---	0.00	29.967 
06:25	43.2	43.2	43.2	82	38.1	0	0	---	0.00	29.967 
06:30	43.2	43.2	43.2	82	38.1	0	0	---	0.00	29.977 
06:35	43.2	43.2	43.2	82	38.1	0	0	---	0.00	29.977 
06:40	43.2	43.2	43.2	83	38.4	0	0	---	0.00	29.977 
06:45	43.3	43.3	43.3	83	38.5	0	0	---	0.00	29.979 
06:50	43.3	43.3	43.3	83	38.5	0	0	---	0.00	29.979 
06:55	43.5	43.5	43.5	84	39.0	0	0	---	0.00	29.979 
07:00	43.6	43.6	43.6	84	39.1	0	0	---	0.00	29.996 
07:05	43.8	43.8	43.8	85	39.6	0	0	---	0.00	29.996 
07:10	43.9	43.9	43.9	85	39.7	0	0	---	0.00	29.996 
07:15	44.1	44.1	44.1	85	39.9	0	0	---	0.00	30.004 
07:20	44.1	44.1	44.1	85	39.9	0	0	---	0.00	30.004 
07:25	44.2	44.2	44.2	85	40.0	0	0	---	0.00	30.004 
07:30	44.3	44.3	44.3	84	39.8	0	0	---	0.00	30.003 
07:35	44.5	44.5	44.5	84	40.0	0	0	---	0.00	30.003 
07:40	44.6	44.6	44.6	83	39.8	0	1	112	0.00	30.003 
07:45	44.9	44.9	44.9	82	39.7	0	1	112	0.00	30.003 
07:50	45.2	45.2	45.2	81	39.7	0	1	112	0.00	30.003 
07:55	45.4	45.4	45.4	80	39.6	0	1	112	0.00	30.003 
08:00	45.5	45.5	45.5	79	39.4	0	0	---	0.00	30.006 
08:05	45.8	45.8	45.8	79	39.7	0	1	112	0.00	30.006 
08:10	46.0	46.0	46.0	78	39.5	0	1	112	0.00	30.006 
08:15	46.0	46.0	46.0	78	39.5	0	2	112	0.00	30.009 
08:20	46.2	46.2	46.2	78	39.7	0	0	---	0.00	30.009 
08:25	46.4	46.4	46.4	77	39.6	0	1	112	0.00	30.009 
08:30	46.5	46.5	46.5	77	39.7	0	1	112	0.00	30.008 
08:35	46.8	46.8	46.8	77	40.0	0	2	112	0.00	30.008 
08:40	46.8	46.8	46.8	76	39.6	0	1	112	0.00	30.008 
08:45	46.8	46.8	46.8	76	39.6	0	2	112	0.00	30.010 
08:50	46.8	46.8	46.8	76	39.6	0	2	112	0.00	30.010 
08:55	46.8	46.8	46.8	76	39.6	0	0	---	0.00	30.010 
09:00	46.8	46.8	46.8	77	40.0	0	0	---	0.00	30.009 
09:05	46.8	46.8	46.8	78	40.3	0	0	---	0.00	30.009 
09:10	46.7	46.7	46.7	79	40.5	0	0	---	0.00	30.009 
09:15	46.5	46.5	46.5	80	40.7	0	0	---	0.00	30.013 
09:20	46.4	46.4	46.4	81	40.9	0	0	---	0.00	30.013 
09:25	46.2	46.2	46.2	81	40.7	0	0	---	0.00	30.013 
09:30	46.2	46.2	46.2	82	41.0	0	0	---	0.00	30.013 
09:35	46.2	46.2	46.2	83	41.3	0	0	---	0.00	30.013 
09:40	46.2	46.2	46.2	84	41.6	0	0	---	0.01	30.013 
09:45	46.1	46.1	46.1	84	41.5	0	0	---	0.00	30.011 
09:50	46.0	46.0	46.0	84	41.4	0	0	---	0.00	30.011 
09:55	46.1	46.1	46.1	85	41.8	0	0	---	0.00	30.011 
10:00	46.0	46.0	46.0	85	41.7	0	0	---	0.00	30.005 
10:05	45.8	45.8	45.8	85	41.6	0	1	112	0.00	30.005 
10:10	45.8	45.8	45.8	86	41.9	0	0	---	0.00	30.005 
10:15	45.8	45.8	45.8	87	42.2	0	0	---	0.00	30.011 
10:20	45.8	45.8	45.8	88	42.5	0	1	112	0.00	30.011 
10:25	45.8	45.8	45.8	88	42.5	0	0	---	0.00	30.011 
10:30	45.7	45.7	45.7	88	42.4	0	1	112	0.00	30.011 
10:35	45.8	45.8	45.8	88	42.5	0	1	112	0.00	30.011 
10:40	46.0	46.0	46.0	89	42.9	0	0	---	0.00	30.011 
10:45	46.0	46.0	46.0	89	42.9	0	1	112	0.00	30.031 
10:50	45.7	45.7	45.7	88	42.4	0	1	112	0.00	30.031 
10:55	45.7	45.7	45.7	89	42.6	0	0	---	0.00	30.031 
11:00	45.7	45.7	45.7	89	42.6	0	0	---	0.00	30.037 
11:05	45.7	45.7	45.7	89	42.6	0	0	---	0.00	30.037 
11:10	45.8	45.8	45.8	89	42.7	0	0	---	0.00	30.037 
11:15	45.8	45.8	45.8	88	42.5	0	0	---	0.00	30.046 
11:20	45.8	45.8	45.8	88	42.5	0	1	112	0.00	30.046 
11:25	45.8	45.8	45.8	88	42.5	0	1	112	0.00	30.046 
11:30	46.0	46.0	46.0	88	42.6	0	0	---	0.00	30.047 
11:35	46.4	46.4	46.4	88	43.0	0	1	112	0.00	30.047 
11:40	46.8	46.8	46.8	88	43.4	0	1	112	0.00	30.047 
11:45	47.0	47.0	47.0	88	43.6	0	2	112	0.00	30.047 
11:50	47.3	47.3	47.3	88	43.9	0	2	112	0.00	30.047 
11:55	47.3	47.3	47.3	87	43.6	0	3	112	0.00	30.047 
12:00	47.3	47.3	47.3	87	43.6	0	2	112	0.00	30.041 
12:05	47.6	47.6	47.6	86	43.6	0	1	112	0.00	30.041 
12:10	48.0	48.0	48.0	86	44.0	0	2	112	0.00	30.041 
12:15	48.3	48.3	48.3	85	44.0	0	2	112	0.00	30.038 
12:20	48.8	48.8	48.8	84	44.2	1	3	112	0.00	30.038 
12:25	48.8	48.8	48.8	82	43.6	1	2	112	0.00	30.038 
12:30	48.6	48.6	48.6	82	43.4	0	1	112	0.00	30.043 
12:35	48.8	48.8	48.8	82	43.6	0	1	112	0.00	30.043 
12:40	48.8	48.8	48.8	82	43.6	0	1	112	0.00	30.043 
12:45	48.9	48.9	48.9	82	43.6	0	2	112	0.00	30.042 
12:50	48.8	48.8	48.8	81	43.2	0	1	112	0.00	30.042 
12:55	48.9	48.9	48.9	81	43.3	0	1	112	0.00	30.042 
13:00	48.9	48.9	48.9	81	43.3	0	1	112	0.00	30.040 
13:05	49.1	49.1	49.1	81	43.5	0	2	112	0.00	30.040 
13:10	49.2	49.2	49.2	81	43.6	0	2	112	0.00	30.040 
13:15	49.6	49.6	49.6	80	43.7	0	1	112	0.00	30.032 
13:20	50.1	50.1	50.1	80	44.2	0	3	112	0.00	30.032 
13:25	50.4	50.4	50.4	79	44.1	0	2	112	0.00	30.032 
13:30	50.4	50.4	50.4	78	43.8	0	3	112	0.00	30.038 
13:35	50.8	50.8	50.8	79	44.5	0	0	---	0.00	30.038 
13:40	51.1	51.1	51.1	78	44.5	0	3	112	0.00	30.038 
13:45	51.4	51.4	51.4	78	44.8	0	2	112	0.00	30.041 
13:50	51.4	51.4	51.4	76	44.1	0	2	112	0.00	30.041 
13:55	51.6	51.6	51.6	76	44.3	0	0	---	0.00	30.041 
14:00	51.9	51.9	51.9	76	44.6	0	0	---	0.00	30.046 
14:05	51.9	51.9	51.9	75	44.2	0	0	---	0.00	30.046 
14:10	51.9	51.9	51.9	74	43.9	0	1	112	0.00	30.046 
14:15	51.9	51.9	51.9	74	43.9	0	0	---	0.00	30.040 
14:20	52.0	52.0	52.0	74	44.0	0	1	112	0.00	30.040 
14:25	52.3	52.3	52.3	75	44.6	0	1	112	0.00	30.040 
14:30	52.6	52.6	52.6	75	44.9	0	0	---	0.00	30.040 
14:35	52.6	52.6	52.6	73	44.2	0	2	112	0.00	30.040 
14:40	52.8	52.8	52.8	73	44.4	0	1	112	0.00	30.040 
14:45	52.8	52.8	52.8	72	44.0	0	1	112	0.00	30.039 
14:50	53.1	53.1	53.1	73	44.7	0	0	---	0.00	30.039 
14:55	53.1	53.1	53.1	72	44.3	0	3	112	0.00	30.039 
15:00	52.9	52.9	52.9	71	43.8	1	3	292	0.00	30.035 
15:05	52.8	52.8	52.8	73	44.4	0	1	292	0.00	30.035 
15:10	52.9	52.9	52.9	72	44.1	0	1	292	0.00	30.035 
15:15	52.8	52.8	52.8	71	43.7	0	1	292	0.00	30.038 
15:20	52.9	52.9	52.9	71	43.8	0	1	292	0.00	30.038 
15:25	52.9	52.9	52.9	72	44.1	0	0	---	0.00	30.038 
15:30	53.1	53.1	53.1	71	43.9	0	1	292	0.00	30.033 
15:35	53.3	53.3	53.3	72	44.5	0	3	292	0.00	30.033 
15:40	53.5	53.5	53.5	71	44.3	1	2	292	0.00	30.033 
15:45	53.5	53.5	53.5	71	44.3	0	2	292	0.00	30.034 
15:50	53.5	53.5	53.5	72	44.7	0	1	292	0.00	30.034 
15:55	53.8	53.8	53.8	71	44.6	0	1	292	0.00	30.034 
16:00	53.8	53.8	53.8	70	44.2	0	1	292	0.00	30.035 
16:05	53.6	53.6	53.6	70	44.1	0	1	292	0.00	30.035 
16:10	53.8	53.8	53.8	70	44.2	0	0	---	0.00	30.035 
16:15	53.8	53.8	53.8	71	44.6	0	2	292	0.00	30.035 
16:20	53.9	53.9	53.9	71	44.7	0	2	292	0.00	30.035 
16:25	53.9	53.9	53.9	71	44.7	0	2	292	0.00	30.035 
16:30	53.9	53.9	53.9	70	44.3	0	2	292	0.00	30.038 
16:35	53.8	53.8	53.8	70	44.2	0	0	---	0.00	30.038 
16:40	53.8	53.8	53.8	69	43.9	0	0	---	0.00	30.038 
16:45	53.6	53.6	53.6	70	44.1	0	0	---	0.00	30.048 
16:50	53.8	53.8	53.8	71	44.6	0	1	292	0.00	30.048 
16:55	53.8	53.8	53.8	70	44.2	0	0	---	0.00	30.048 
17:00	53.8	53.8	53.8	70	44.2	0	1	292	0.00	30.051 
17:05	53.6	53.6	53.6	70	44.1	0	1	292	0.00	30.051 
17:10	53.6	53.6	53.6	71	44.4	0	1	292	0.00	30.051 
17:15	53.6	53.6	53.6	71	44.4	0	0	---	0.00	30.055 
17:20	53.6	53.6	53.6	71	44.4	0	0	---	0.00	30.055 
17:25	53.6	53.6	53.6	71	44.4	0	0	---	0.00	30.055 
17:30	53.8	53.8	53.8	70	44.2	0	0	---	0.00	30.056 
17:35	53.8	53.8	53.8	70	44.2	0	0	---	0.00	30.056 
17:40	53.8	53.8	53.8	71	44.6	0	0	---	0.00	30.056 
17:45	53.8	53.8	53.8	71	44.6	0	0	---	0.00	30.060 
17:50	53.9	53.9	53.9	71	44.7	0	1	292	0.00	30.060 
17:55	53.9	53.9	53.9	71	44.7	0	3	292	0.00	30.060 
18:00	53.9	53.9	53.9	71	44.7	0	1	292	0.00	30.067 
18:05	53.9	53.9	53.9	72	45.1	0	1	292	0.00	30.067 
18:10	53.9	53.9	53.9	71	44.7	0	2	292	0.00	30.067 
18:15	53.9	53.9	53.9	72	45.1	0	2	292	0.00	30.068 
18:20	53.9	53.9	53.9	71	44.7	0	1	292	0.00	30.068 
18:25	53.9	53.9	53.9	71	44.7	0	1	292	0.00	30.068 
18:30	53.9	53.9	53.9	71	44.7	0	0	---	0.00	30.071 
18:35	53.9	53.9	53.9	71	44.7	0	0	---	0.00	30.071 
18:40	53.9	53.9	53.9	72	45.1	0	1	292	0.00	30.071 
18:45	53.9	53.9	53.9	71	44.7	0	0	---	0.00	30.070 
18:50	53.8	53.8	53.8	71	44.6	0	0	---	0.00	30.070 
18:55	53.8	53.8	53.8	72	45.0	0	0	---	0.00	30.070 
19:00	53.8	53.8	53.8	72	45.0	0	1	292	0.00	30.065 
19:05	53.8	53.8	53.8	71	44.6	0	1	292	0.00	30.065 
19:10	53.8	53.8	53.8	71	44.6	0	0	---	0.00	30.065 
19:15	53.8	53.8	53.8	71	44.6	0	1	292	0.00	30.064 
19:20	53.6	53.6	53.6	72	44.8	0	1	292	0.00	30.064 
19:25	53.6	53.6	53.6	72	44.8	0	0	---	0.00	30.064 
19:30	53.6	53.6	53.6	72	44.8	0	0	---	0.00	30.057 
19:35	53.6	53.6	53.6	73	45.2	0	2	292	0.00	30.057 
19:40	53.5	53.5	53.5	72	44.7	0	1	292	0.00	30.057 
19:45	53.5	53.5	53.5	71	44.3	0	1	292	0.00	30.058 
19:50	53.5	53.5	53.5	71	44.3	0	0	---	0.00	30.058 
19:55	53.5	53.5	53.5	71	44.3	0	0	---	0.00	30.058 
20:00	53.5	53.5	53.5	72	44.7	0	0	---	0.00	30.064 
20:05	53.5	53.5	53.5	72	44.7	0	0	---	0.00	30.064 
20:10	53.5	53.5	53.5	72	44.7	0	0	---	0.00	30.064 
20:15	53.5	53.5	53.5	72	44.7	0	0	---	0.00	30.066 
20:20	53.3	53.3	53.3	72	44.5	0	0	---	0.00	30.066 
20:25	53.1	53.1	53.1	72	44.3	0	0	---	0.00	30.066 
20:30	52.9	52.9	52.9	73	44.5	0	0	---	0.00	30.068 
20:35	52.6	52.6	52.6	73	44.2	0	0	---	0.00	30.068 
20:40	52.3	52.3	52.3	74	44.3	0	0	---	0.00	30.068 
20:45	52.0	52.0	52.0	75	44.3	0	0	---	0.00	30.084 
20:50	51.9	51.9	51.9	75	44.2	0	0	---	0.00	30.084 
20:55	51.6	51.6	51.6	76	44.3	0	0	---	0.00	30.084 
21:00	51.4	51.4	51.4	77	44.4	0	0	---	0.00	30.090 
21:05	51.3	51.3	51.3	77	44.3	0	0	---	0.00	30.090 
21:10	51.1	51.1	51.1	78	44.5	0	0	---	0.00	30.090 
21:15	51.0	51.0	51.0	78	44.4	0	0	---	0.00	30.102 
21:20	50.8	50.8	50.8	79	44.5	0	0	---	0.00	30.102 
21:25	50.8	50.8	50.8	79	44.5	0	0	---	0.00	30.102 
21:30	50.7	50.7	50.7	80	44.8	0	0	---	0.00	30.106 
21:35	50.7	50.7	50.7	81	45.1	0	0	---	0.00	30.106 
21:40	50.7	50.7	50.7	81	45.1	0	0	---	0.00	30.106 
21:45	50.5	50.5	50.5	81	44.9	0	0	---	0.00	30.104 
21:50	50.5	50.5	50.5	81	44.9	0	0	---	0.00	30.104 
21:55	50.4	50.4	50.4	81	44.8	0	0	---	0.00	30.104 
22:00	50.4	50.4	50.4	82	45.1	0	0	---	0.00	30.106 
22:05	50.4	50.4	50.4	82	45.1	0	0	---	0.00	30.106 
22:10	50.5	50.5	50.5	82	45.2	2	4	292	0.00	30.106 
22:15	50.5	50.5	50.5	82	45.2	1	3	90	0.00	30.113 
22:20	50.4	50.4	50.4	81	44.8	2	4	112	0.00	30.113 
22:25	50.2	50.2	50.2	81	44.6	2	5	90	0.00	30.113 
22:30	49.9	49.9	49.9	81	44.3	3	5	90	0.00	30.118 
22:35	49.8	49.8	49.8	81	44.2	2	5	90	0.00	30.118 
22:40	49.5	49.5	49.5	81	43.9	1	4	112	0.00	30.118 
22:45	49.4	49.4	49.4	81	43.8	1	3	68	0.00	30.121 
22:50	49.2	49.2	49.2	81	43.6	1	3	68	0.00	30.121 
22:55	48.9	48.9	48.9	81	43.3	1	3	90	0.00	30.121 
23:00	48.8	48.8	48.8	81	43.2	2	6	90	0.00	30.119 
23:05	48.6	48.6	48.6	81	43.0	1	3	90	0.00	30.119 
23:10	48.6	48.6	48.6	80	42.7	2	4	90	0.00	30.119 
23:15	48.6	48.6	48.6	80	42.7	2	4	90	0.00	30.117 
23:20	48.5	48.5	48.5	79	42.3	3	6	90	0.00	30.117 
23:25	48.5	48.5	48.5	79	42.3	2	4	90	0.00	30.117 
23:30	48.5	48.5	48.5	79	42.3	2	4	68	0.00	30.118 
23:35	48.5	48.5	48.5	79	42.3	1	4	68	0.00	30.118 
23:40	48.5	48.5	48.5	80	42.6	2	4	90	0.00	30.118 
23:45	48.5	48.5	48.5	80	42.6	1	4	90	0.00	30.122 
23:50	48.3	48.3	48.3	80	42.4	2	4	90	0.00	30.122 
23:55	48.3	48.3	48.3	80	42.4	2	4	90	0.00	30.122 

CoCoRaHS
IN-AL-39
A2 Web Hosting
Creative Commons License
GoDaddy
search engine by freefind advanced

loaded 2018-11-12 20:01:17 • last modified 2010-11-18 10:43:29
Privacy PolicyDisclaimer
• wx.awcolley.com is powered by PmWiki v.2002016 •
• all content (unless otherwise noted) © 2018 A W Colley